sensor_id;sensor_type;location;lat;lon;timestamp;temperature;humidity
71868;DHT22;59738;48.324;14.230;2022-08-18T00:00:29;25.30;26.80
71868;DHT22;59738;48.324;14.230;2022-08-18T00:02:59;25.30;26.80
71868;DHT22;59738;48.324;14.230;2022-08-18T00:05:29;25.40;26.40
71868;DHT22;59738;48.324;14.230;2022-08-18T00:07:57;25.40;26.50
71868;DHT22;59738;48.324;14.230;2022-08-18T00:10:25;25.40;26.40
71868;DHT22;59738;48.324;14.230;2022-08-18T00:12:53;25.40;26.50
71868;DHT22;59738;48.324;14.230;2022-08-18T00:15:21;25.30;26.90
71868;DHT22;59738;48.324;14.230;2022-08-18T00:17:48;25.30;26.70
71868;DHT22;59738;48.324;14.230;2022-08-18T00:20:20;25.40;26.80
71868;DHT22;59738;48.324;14.230;2022-08-18T00:22:49;25.30;26.80
71868;DHT22;59738;48.324;14.230;2022-08-18T00:25:18;25.30;26.50
71868;DHT22;59738;48.324;14.230;2022-08-18T00:27:46;25.30;26.70
71868;DHT22;59738;48.324;14.230;2022-08-18T00:30:16;25.20;26.90
71868;DHT22;59738;48.324;14.230;2022-08-18T00:32:47;25.30;27.50
71868;DHT22;59738;48.324;14.230;2022-08-18T00:35:17;25.30;26.70
71868;DHT22;59738;48.324;14.230;2022-08-18T00:37:46;25.30;27.20
71868;DHT22;59738;48.324;14.230;2022-08-18T00:40:17;25.30;26.90
71868;DHT22;59738;48.324;14.230;2022-08-18T00:42:49;25.10;27.50
71868;DHT22;59738;48.324;14.230;2022-08-18T00:45:20;25.00;27.20
71868;DHT22;59738;48.324;14.230;2022-08-18T00:47:48;24.90;27.60
71868;DHT22;59738;48.324;14.230;2022-08-18T00:50:21;24.90;27.70
71868;DHT22;59738;48.324;14.230;2022-08-18T00:52:54;24.90;27.70
71868;DHT22;59738;48.324;14.230;2022-08-18T00:55:24;24.90;28.00
71868;DHT22;59738;48.324;14.230;2022-08-18T00:57:57;24.80;28.00
71868;DHT22;59738;48.324;14.230;2022-08-18T01:00:27;24.80;28.20
71868;DHT22;59738;48.324;14.230;2022-08-18T01:02:58;24.90;27.80
71868;DHT22;59738;48.324;14.230;2022-08-18T01:05:30;24.90;28.00
71868;DHT22;59738;48.324;14.230;2022-08-18T01:07:59;24.80;28.60
71868;DHT22;59738;48.324;14.230;2022-08-18T01:10:32;24.80;28.40
71868;DHT22;59738;48.324;14.230;2022-08-18T01:13:00;24.60;28.80
71868;DHT22;59738;48.324;14.230;2022-08-18T01:15:28;24.20;30.30
71868;DHT22;59738;48.324;14.230;2022-08-18T01:17:57;23.90;31.90
71868;DHT22;59738;48.324;14.230;2022-08-18T01:20:46;23.70;31.70
71868;DHT22;59738;48.324;14.230;2022-08-18T01:23:36;23.50;32.60
71868;DHT22;59738;48.324;14.230;2022-08-18T01:26:04;23.30;33.50
71868;DHT22;59738;48.324;14.230;2022-08-18T01:28:34;23.40;33.60
71868;DHT22;59738;48.324;14.230;2022-08-18T01:31:02;23.30;33.20
71868;DHT22;59738;48.324;14.230;2022-08-18T01:33:32;23.30;33.60
71868;DHT22;59738;48.324;14.230;2022-08-18T01:36:16;23.30;33.20
71868;DHT22;59738;48.324;14.230;2022-08-18T01:38:48;23.20;34.50
71868;DHT22;59738;48.324;14.230;2022-08-18T01:41:17;23.10;34.20
71868;DHT22;59738;48.324;14.230;2022-08-18T01:43:46;23.10;34.20
71868;DHT22;59738;48.324;14.230;2022-08-18T01:46:16;23.00;35.20
71868;DHT22;59738;48.324;14.230;2022-08-18T01:48:46;22.80;36.10
71868;DHT22;59738;48.324;14.230;2022-08-18T01:51:15;22.70;37.70
71868;DHT22;59738;48.324;14.230;2022-08-18T01:53:46;22.40;38.10
71868;DHT22;59738;48.324;14.230;2022-08-18T01:56:15;22.30;38.60
71868;DHT22;59738;48.324;14.230;2022-08-18T01:58:44;22.10;38.50
71868;DHT22;59738;48.324;14.230;2022-08-18T02:01:13;22.20;37.90
71868;DHT22;59738;48.324;14.230;2022-08-18T02:03:46;22.40;37.20
71868;DHT22;59738;48.324;14.230;2022-08-18T02:06:16;22.60;36.70
71868;DHT22;59738;48.324;14.230;2022-08-18T02:08:46;22.60;36.70
71868;DHT22;59738;48.324;14.230;2022-08-18T02:11:14;22.60;37.10
71868;DHT22;59738;48.324;14.230;2022-08-18T02:13:42;22.50;38.30
71868;DHT22;59738;48.324;14.230;2022-08-18T02:16:10;22.20;39.70
71868;DHT22;59738;48.324;14.230;2022-08-18T02:18:38;22.00;39.90
71868;DHT22;59738;48.324;14.230;2022-08-18T02:21:08;22.00;40.00
71868;DHT22;59738;48.324;14.230;2022-08-18T02:23:37;21.80;41.00
71868;DHT22;59738;48.324;14.230;2022-08-18T02:26:08;21.70;41.50
71868;DHT22;59738;48.324;14.230;2022-08-18T02:28:36;21.70;41.60
71868;DHT22;59738;48.324;14.230;2022-08-18T02:31:05;21.60;41.90
71868;DHT22;59738;48.324;14.230;2022-08-18T02:33:33;21.60;41.70
71868;DHT22;59738;48.324;14.230;2022-08-18T02:36:01;21.50;42.50
71868;DHT22;59738;48.324;14.230;2022-08-18T02:38:29;21.40;43.50
71868;DHT22;59738;48.324;14.230;2022-08-18T02:40:58;21.40;43.70
71868;DHT22;59738;48.324;14.230;2022-08-18T02:43:28;21.50;43.30
71868;DHT22;59738;48.324;14.230;2022-08-18T02:45:57;21.50;43.40
71868;DHT22;59738;48.324;14.230;2022-08-18T02:48:27;21.50;43.80
71868;DHT22;59738;48.324;14.230;2022-08-18T02:51:00;21.40;44.20
71868;DHT22;59738;48.324;14.230;2022-08-18T02:53:29;21.40;45.00
71868;DHT22;59738;48.324;14.230;2022-08-18T02:56:05;21.40;45.00
71868;DHT22;59738;48.324;14.230;2022-08-18T02:58:41;21.30;45.40
71868;DHT22;59738;48.324;14.230;2022-08-18T03:01:09;21.20;46.80
71868;DHT22;59738;48.324;14.230;2022-08-18T03:03:37;21.00;46.90
71868;DHT22;59738;48.324;14.230;2022-08-18T03:06:07;20.90;46.90
71868;DHT22;59738;48.324;14.230;2022-08-18T03:08:37;20.70;48.80
71868;DHT22;59738;48.324;14.230;2022-08-18T03:11:06;20.60;48.30
71868;DHT22;59738;48.324;14.230;2022-08-18T03:13:36;20.80;48.20
71868;DHT22;59738;48.324;14.230;2022-08-18T03:16:10;20.90;47.80
71868;DHT22;59738;48.324;14.230;2022-08-18T03:18:39;21.00;46.80
71868;DHT22;59738;48.324;14.230;2022-08-18T03:21:14;21.00;45.90
71868;DHT22;59738;48.324;14.230;2022-08-18T03:23:43;21.10;47.00
71868;DHT22;59738;48.324;14.230;2022-08-18T03:26:12;21.00;47.10
71868;DHT22;59738;48.324;14.230;2022-08-18T03:28:43;20.90;48.10
71868;DHT22;59738;48.324;14.230;2022-08-18T03:31:13;20.80;48.70
71868;DHT22;59738;48.324;14.230;2022-08-18T03:33:43;20.80;49.20
71868;DHT22;59738;48.324;14.230;2022-08-18T03:36:13;20.60;49.80
71868;DHT22;59738;48.324;14.230;2022-08-18T03:38:42;20.50;50.40
71868;DHT22;59738;48.324;14.230;2022-08-18T03:41:12;20.50;50.30
71868;DHT22;59738;48.324;14.230;2022-08-18T03:43:41;20.50;50.90
71868;DHT22;59738;48.324;14.230;2022-08-18T03:46:10;20.40;51.40
71868;DHT22;59738;48.324;14.230;2022-08-18T03:48:41;20.20;52.30
71868;DHT22;59738;48.324;14.230;2022-08-18T03:51:15;20.10;52.60
71868;DHT22;59738;48.324;14.230;2022-08-18T03:53:45;20.20;52.00
71868;DHT22;59738;48.324;14.230;2022-08-18T03:56:16;20.30;52.10
71868;DHT22;59738;48.324;14.230;2022-08-18T03:58:46;20.10;53.10
71868;DHT22;59738;48.324;14.230;2022-08-18T04:01:16;19.90;53.40
71868;DHT22;59738;48.324;14.230;2022-08-18T04:03:49;20.00;52.20
71868;DHT22;59738;48.324;14.230;2022-08-18T04:06:19;20.40;51.30
71868;DHT22;59738;48.324;14.230;2022-08-18T04:08:49;20.40;51.40
71868;DHT22;59738;48.324;14.230;2022-08-18T04:11:17;20.40;51.60
71868;DHT22;59738;48.324;14.230;2022-08-18T04:13:46;20.40;52.00
71868;DHT22;59738;48.324;14.230;2022-08-18T04:16:13;20.40;52.00
71868;DHT22;59738;48.324;14.230;2022-08-18T04:18:41;20.50;51.60
71868;DHT22;59738;48.324;14.230;2022-08-18T04:21:11;20.60;51.60
71868;DHT22;59738;48.324;14.230;2022-08-18T04:23:40;20.60;52.10
71868;DHT22;59738;48.324;14.230;2022-08-18T04:26:08;20.50;52.50
71868;DHT22;59738;48.324;14.230;2022-08-18T04:28:37;20.50;52.90
71868;DHT22;59738;48.324;14.230;2022-08-18T04:31:06;20.50;53.10
71868;DHT22;59738;48.324;14.230;2022-08-18T04:33:34;20.40;53.30
71868;DHT22;59738;48.324;14.230;2022-08-18T04:36:07;20.50;53.50
71868;DHT22;59738;48.324;14.230;2022-08-18T04:38:37;20.50;53.40
71868;DHT22;59738;48.324;14.230;2022-08-18T04:41:05;20.50;53.60
71868;DHT22;59738;48.324;14.230;2022-08-18T04:43:32;20.50;54.30
71868;DHT22;59738;48.324;14.230;2022-08-18T04:46:00;20.40;54.90
71868;DHT22;59738;48.324;14.230;2022-08-18T04:48:29;20.30;54.90
71868;DHT22;59738;48.324;14.230;2022-08-18T04:51:04;20.30;55.10
71868;DHT22;59738;48.324;14.230;2022-08-18T04:53:33;20.30;55.30
71868;DHT22;59738;48.324;14.230;2022-08-18T04:56:16;20.30;55.60
71868;DHT22;59738;48.324;14.230;2022-08-18T04:58:47;20.30;55.90
71868;DHT22;59738;48.324;14.230;2022-08-18T05:01:16;20.30;57.10
71868;DHT22;59738;48.324;14.230;2022-08-18T05:03:44;20.20;56.70
71868;DHT22;59738;48.324;14.230;2022-08-18T05:06:12;20.20;57.10
71868;DHT22;59738;48.324;14.230;2022-08-18T05:08:40;20.20;57.30
71868;DHT22;59738;48.324;14.230;2022-08-18T05:11:07;20.30;57.00
71868;DHT22;59738;48.324;14.230;2022-08-18T05:13:37;20.50;57.10
71868;DHT22;59738;48.324;14.230;2022-08-18T05:16:05;20.70;56.50
71868;DHT22;59738;48.324;14.230;2022-08-18T05:18:34;20.80;56.00
71868;DHT22;59738;48.324;14.230;2022-08-18T05:21:04;21.00;56.00
71868;DHT22;59738;48.324;14.230;2022-08-18T05:23:31;21.20;55.20
71868;DHT22;59738;48.324;14.230;2022-08-18T05:26:00;21.30;54.30
71868;DHT22;59738;48.324;14.230;2022-08-18T05:28:29;21.40;54.20
71868;DHT22;59738;48.324;14.230;2022-08-18T05:30:58;21.40;54.40
71868;DHT22;59738;48.324;14.230;2022-08-18T05:33:25;21.40;54.30
71868;DHT22;59738;48.324;14.230;2022-08-18T05:36:00;21.50;54.10
71868;DHT22;59738;48.324;14.230;2022-08-18T05:38:40;21.40;53.60
71868;DHT22;59738;48.324;14.230;2022-08-18T05:41:19;21.50;53.40
71868;DHT22;59738;48.324;14.230;2022-08-18T05:43:48;21.60;53.30
71868;DHT22;59738;48.324;14.230;2022-08-18T05:46:18;21.70;53.20
71868;DHT22;59738;48.324;14.230;2022-08-18T05:48:48;21.90;52.30
71868;DHT22;59738;48.324;14.230;2022-08-18T05:51:21;22.00;51.90
71868;DHT22;59738;48.324;14.230;2022-08-18T05:53:52;22.20;51.70
71868;DHT22;59738;48.324;14.230;2022-08-18T05:56:38;22.30;52.00
71868;DHT22;59738;48.324;14.230;2022-08-18T05:59:19;22.60;51.00
71868;DHT22;59738;48.324;14.230;2022-08-18T06:01:55;22.80;50.30
71868;DHT22;59738;48.324;14.230;2022-08-18T06:04:32;23.00;49.30
71868;DHT22;59738;48.324;14.230;2022-08-18T06:07:07;22.90;50.30
71868;DHT22;59738;48.324;14.230;2022-08-18T06:09:40;22.80;51.20
71868;DHT22;59738;48.324;14.230;2022-08-18T06:12:24;23.00;51.10
71868;DHT22;59738;48.324;14.230;2022-08-18T06:14:59;22.70;51.30
71868;DHT22;59738;48.324;14.230;2022-08-18T06:20:52;22.50;53.00
71868;DHT22;59738;48.324;14.230;2022-08-18T06:23:32;22.40;53.70
71868;DHT22;59738;48.324;14.230;2022-08-18T06:26:08;22.60;52.70
71868;DHT22;59738;48.324;14.230;2022-08-18T06:28:52;22.80;52.90
71868;DHT22;59738;48.324;14.230;2022-08-18T06:31:28;22.80;52.90
71868;DHT22;59738;48.324;14.230;2022-08-18T06:34:05;23.00;52.40
71868;DHT22;59738;48.324;14.230;2022-08-18T06:36:39;23.10;52.20
71868;DHT22;59738;48.324;14.230;2022-08-18T06:39:19;23.20;53.00
71868;DHT22;59738;48.324;14.230;2022-08-18T06:41:49;23.30;52.20
71868;DHT22;59738;48.324;14.230;2022-08-18T06:44:24;23.10;53.00
71868;DHT22;59738;48.324;14.230;2022-08-18T06:47:00;23.40;52.40
71868;DHT22;59738;48.324;14.230;2022-08-18T06:49:40;23.40;53.10
71868;DHT22;59738;48.324;14.230;2022-08-18T06:52:24;23.90;52.10
71868;DHT22;59738;48.324;14.230;2022-08-18T06:54:53;23.80;51.70
71868;DHT22;59738;48.324;14.230;2022-08-18T06:57:24;24.30;50.50
71868;DHT22;59738;48.324;14.230;2022-08-18T06:59:58;24.60;49.30
71868;DHT22;59738;48.324;14.230;2022-08-18T07:02:46;24.70;49.90
71868;DHT22;59738;48.324;14.230;2022-08-18T07:05:19;24.70;48.00
71868;DHT22;59738;48.324;14.230;2022-08-18T07:08:08;24.30;49.80
71868;DHT22;59738;48.324;14.230;2022-08-18T07:10:39;24.30;49.20
71868;DHT22;59738;48.324;14.230;2022-08-18T07:13:17;24.90;48.00
71868;DHT22;59738;48.324;14.230;2022-08-18T07:15:46;24.50;48.60
71868;DHT22;59738;48.324;14.230;2022-08-18T07:18:21;24.30;48.90
71868;DHT22;59738;48.324;14.230;2022-08-18T07:20:51;24.50;50.00
71868;DHT22;59738;48.324;14.230;2022-08-18T07:23:24;24.60;49.90
71868;DHT22;59738;48.324;14.230;2022-08-18T07:26:00;24.20;51.30
71868;DHT22;59738;48.324;14.230;2022-08-18T07:28:30;24.40;50.30
71868;DHT22;59738;48.324;14.230;2022-08-18T07:31:19;24.40;51.90
71868;DHT22;59738;48.324;14.230;2022-08-18T07:33:54;24.30;50.60
71868;DHT22;59738;48.324;14.230;2022-08-18T07:36:26;24.10;51.60
71868;DHT22;59738;48.324;14.230;2022-08-18T07:39:02;24.10;51.80
71868;DHT22;59738;48.324;14.230;2022-08-18T07:41:33;24.00;52.60
71868;DHT22;59738;48.324;14.230;2022-08-18T07:44:12;24.00;53.00
71868;DHT22;59738;48.324;14.230;2022-08-18T07:46:46;24.10;53.10
71868;DHT22;59738;48.324;14.230;2022-08-18T07:49:19;24.30;52.30
71868;DHT22;59738;48.324;14.230;2022-08-18T07:51:51;24.40;52.30
71868;DHT22;59738;48.324;14.230;2022-08-18T07:54:33;24.20;51.80
71868;DHT22;59738;48.324;14.230;2022-08-18T07:57:07;24.30;52.80
71868;DHT22;59738;48.324;14.230;2022-08-18T07:59:42;24.30;53.20
71868;DHT22;59738;48.324;14.230;2022-08-18T08:02:27;24.40;52.70
71868;DHT22;59738;48.324;14.230;2022-08-18T08:05:06;24.60;52.20
71868;DHT22;59738;48.324;14.230;2022-08-18T08:07:40;24.70;51.50
71868;DHT22;59738;48.324;14.230;2022-08-18T08:10:26;24.40;51.90
71868;DHT22;59738;48.324;14.230;2022-08-18T08:13:05;24.30;52.30
71868;DHT22;59738;48.324;14.230;2022-08-18T08:15:40;24.40;52.00
71868;DHT22;59738;48.324;14.230;2022-08-18T08:18:14;24.20;53.30
71868;DHT22;59738;48.324;14.230;2022-08-18T08:20:46;24.40;53.80
71868;DHT22;59738;48.324;14.230;2022-08-18T08:23:24;24.30;54.20
71868;DHT22;59738;48.324;14.230;2022-08-18T08:26:12;24.50;52.20
71868;DHT22;59738;48.324;14.230;2022-08-18T08:28:53;24.30;53.20
71868;DHT22;59738;48.324;14.230;2022-08-18T08:31:28;24.60;52.90
71868;DHT22;59738;48.324;14.230;2022-08-18T08:34:06;24.60;52.70
71868;DHT22;59738;48.324;14.230;2022-08-18T08:36:39;24.70;52.30
71868;DHT22;59738;48.324;14.230;2022-08-18T08:39:13;25.40;50.10
71868;DHT22;59738;48.324;14.230;2022-08-18T08:41:46;25.10;50.80
71868;DHT22;59738;48.324;14.230;2022-08-18T08:44:21;25.10;52.90
71868;DHT22;59738;48.324;14.230;2022-08-18T08:46:53;25.20;51.10
71868;DHT22;59738;48.324;14.230;2022-08-18T08:49:28;25.40;49.70
71868;DHT22;59738;48.324;14.230;2022-08-18T08:52:01;25.70;48.80
71868;DHT22;59738;48.324;14.230;2022-08-18T08:54:37;25.60;49.40
71868;DHT22;59738;48.324;14.230;2022-08-18T08:57:08;25.30;50.20
71868;DHT22;59738;48.324;14.230;2022-08-18T08:59:38;25.30;51.20
71868;DHT22;59738;48.324;14.230;2022-08-18T09:05:07;25.00;51.40
71868;DHT22;59738;48.324;14.230;2022-08-18T09:08:00;25.60;50.40
71868;DHT22;59738;48.324;14.230;2022-08-18T09:10:44;26.00;48.40
71868;DHT22;59738;48.324;14.230;2022-08-18T09:13:40;26.60;46.20
71868;DHT22;59738;48.324;14.230;2022-08-18T09:16:21;26.80;45.40
71868;DHT22;59738;48.324;14.230;2022-08-18T09:19:01;27.00;45.10
71868;DHT22;59738;48.324;14.230;2022-08-18T09:21:40;26.90;46.00
71868;DHT22;59738;48.324;14.230;2022-08-18T09:24:20;26.60;46.40
71868;DHT22;59738;48.324;14.230;2022-08-18T09:26:51;27.00;44.10
71868;DHT22;59738;48.324;14.230;2022-08-18T09:29:24;27.40;42.40
71868;DHT22;59738;48.324;14.230;2022-08-18T09:35:08;28.40;39.00
71868;DHT22;59738;48.324;14.230;2022-08-18T09:37:45;28.60;39.70
71868;DHT22;59738;48.324;14.230;2022-08-18T09:40:34;28.90;37.80
71868;DHT22;59738;48.324;14.230;2022-08-18T09:43:31;28.50;37.80
71868;DHT22;59738;48.324;14.230;2022-08-18T09:46:02;28.10;39.50
71868;DHT22;59738;48.324;14.230;2022-08-18T09:48:33;27.80;41.80
71868;DHT22;59738;48.324;14.230;2022-08-18T09:51:31;28.80;37.70
71868;DHT22;59738;48.324;14.230;2022-08-18T09:54:09;29.30;37.70
71868;DHT22;59738;48.324;14.230;2022-08-18T09:57:15;29.60;36.60
71868;DHT22;59738;48.324;14.230;2022-08-18T10:03:21;30.30;35.80
71868;DHT22;59738;48.324;14.230;2022-08-18T10:06:04;29.90;35.90
71868;DHT22;59738;48.324;14.230;2022-08-18T10:11:56;30.50;33.20
71868;DHT22;59738;48.324;14.230;2022-08-18T10:14:50;30.20;33.70
71868;DHT22;59738;48.324;14.230;2022-08-18T10:17:33;30.60;35.50
71868;DHT22;59738;48.324;14.230;2022-08-18T10:20:19;30.90;32.60
71868;DHT22;59738;48.324;14.230;2022-08-18T10:22:49;31.40;32.10
71868;DHT22;59738;48.324;14.230;2022-08-18T10:25:31;31.70;30.80
71868;DHT22;59738;48.324;14.230;2022-08-18T10:28:00;31.10;31.20
71868;DHT22;59738;48.324;14.230;2022-08-18T10:31:01;30.00;32.50
71868;DHT22;59738;48.324;14.230;2022-08-18T10:36:43;29.20;35.20
71868;DHT22;59738;48.324;14.230;2022-08-18T10:39:14;29.50;35.60
71868;DHT22;59738;48.324;14.230;2022-08-18T10:41:53;29.70;32.90
71868;DHT22;59738;48.324;14.230;2022-08-18T10:44:23;30.00;33.50
71868;DHT22;59738;48.324;14.230;2022-08-18T10:46:52;31.10;33.60
71868;DHT22;59738;48.324;14.230;2022-08-18T10:49:23;32.00;28.70
71868;DHT22;59738;48.324;14.230;2022-08-18T10:52:18;31.40;29.60
71868;DHT22;59738;48.324;14.230;2022-08-18T10:55:05;30.80;29.90
71868;DHT22;59738;48.324;14.230;2022-08-18T10:57:46;30.90;29.60
71868;DHT22;59738;48.324;14.230;2022-08-18T11:00:18;29.90;32.40
71868;DHT22;59738;48.324;14.230;2022-08-18T11:03:00;29.70;33.00
71868;DHT22;59738;48.324;14.230;2022-08-18T11:05:31;29.40;34.00
71868;DHT22;59738;48.324;14.230;2022-08-18T11:08:05;30.40;34.60
71868;DHT22;59738;48.324;14.230;2022-08-18T11:10:37;31.00;30.50
71868;DHT22;59738;48.324;14.230;2022-08-18T11:13:10;31.80;30.00
71868;DHT22;59738;48.324;14.230;2022-08-18T11:15:52;31.80;29.50
71868;DHT22;59738;48.324;14.230;2022-08-18T11:18:29;31.90;31.60
71868;DHT22;59738;48.324;14.230;2022-08-18T11:24:10;32.10;30.60
71868;DHT22;59738;48.324;14.230;2022-08-18T11:26:41;31.80;32.20
71868;DHT22;59738;48.324;14.230;2022-08-18T11:29:27;31.80;31.10
71868;DHT22;59738;48.324;14.230;2022-08-18T11:31:58;32.10;30.00
71868;DHT22;59738;48.324;14.230;2022-08-18T11:34:30;31.50;30.40
71868;DHT22;59738;48.324;14.230;2022-08-18T11:37:01;32.00;30.60
71868;DHT22;59738;48.324;14.230;2022-08-18T11:39:30;31.70;31.40
71868;DHT22;59738;48.324;14.230;2022-08-18T11:41:58;31.90;31.40
71868;DHT22;59738;48.324;14.230;2022-08-18T11:44:29;31.70;29.80
71868;DHT22;59738;48.324;14.230;2022-08-18T11:47:11;31.90;29.90
71868;DHT22;59738;48.324;14.230;2022-08-18T11:49:51;31.90;31.40
71868;DHT22;59738;48.324;14.230;2022-08-18T11:52:25;31.60;31.90
71868;DHT22;59738;48.324;14.230;2022-08-18T11:55:00;32.00;30.50
71868;DHT22;59738;48.324;14.230;2022-08-18T11:57:30;32.10;30.40
71868;DHT22;59738;48.324;14.230;2022-08-18T12:00:52;31.70;31.30
71868;DHT22;59738;48.324;14.230;2022-08-18T12:03:27;32.00;29.90
71868;DHT22;59738;48.324;14.230;2022-08-18T12:05:58;32.60;29.00
71868;DHT22;59738;48.324;14.230;2022-08-18T12:08:36;31.90;30.40
71868;DHT22;59738;48.324;14.230;2022-08-18T12:11:13;32.30;29.00
71868;DHT22;59738;48.324;14.230;2022-08-18T12:13:44;32.30;29.20
71868;DHT22;59738;48.324;14.230;2022-08-18T12:16:15;32.20;29.10
71868;DHT22;59738;48.324;14.230;2022-08-18T12:18:44;32.10;29.40
71868;DHT22;59738;48.324;14.230;2022-08-18T12:21:12;32.50;28.30
71868;DHT22;59738;48.324;14.230;2022-08-18T12:23:41;32.70;27.60
71868;DHT22;59738;48.324;14.230;2022-08-18T12:26:10;32.80;28.20
71868;DHT22;59738;48.324;14.230;2022-08-18T12:28:38;32.70;27.20
71868;DHT22;59738;48.324;14.230;2022-08-18T12:31:06;32.30;28.70
71868;DHT22;59738;48.324;14.230;2022-08-18T12:33:35;32.60;28.50
71868;DHT22;59738;48.324;14.230;2022-08-18T12:36:04;32.50;29.40
71868;DHT22;59738;48.324;14.230;2022-08-18T12:38:32;32.40;29.10
71868;DHT22;59738;48.324;14.230;2022-08-18T12:41:00;31.80;29.20
71868;DHT22;59738;48.324;14.230;2022-08-18T12:43:29;31.80;29.70
71868;DHT22;59738;48.324;14.230;2022-08-18T12:45:58;32.30;29.30
71868;DHT22;59738;48.324;14.230;2022-08-18T12:48:27;32.70;28.60
71868;DHT22;59738;48.324;14.230;2022-08-18T12:50:57;31.40;29.60
71868;DHT22;59738;48.324;14.230;2022-08-18T12:53:25;31.10;30.10
71868;DHT22;59738;48.324;14.230;2022-08-18T12:55:53;31.40;31.00
71868;DHT22;59738;48.324;14.230;2022-08-18T12:58:21;31.60;30.00
71868;DHT22;59738;48.324;14.230;2022-08-18T13:00:50;31.90;30.80
71868;DHT22;59738;48.324;14.230;2022-08-18T13:03:18;32.10;30.10
71868;DHT22;59738;48.324;14.230;2022-08-18T13:05:46;32.50;29.20
71868;DHT22;59738;48.324;14.230;2022-08-18T13:08:17;32.70;28.00
71868;DHT22;59738;48.324;14.230;2022-08-18T13:10:46;32.50;28.60
71868;DHT22;59738;48.324;14.230;2022-08-18T13:13:15;32.50;29.00
71868;DHT22;59738;48.324;14.230;2022-08-18T13:15:44;32.20;28.90
71868;DHT22;59738;48.324;14.230;2022-08-18T13:18:13;32.70;28.30
71868;DHT22;59738;48.324;14.230;2022-08-18T13:20:41;32.10;27.80
71868;DHT22;59738;48.324;14.230;2022-08-18T13:23:09;32.10;28.40
71868;DHT22;59738;48.324;14.230;2022-08-18T13:25:37;31.80;29.20
71868;DHT22;59738;48.324;14.230;2022-08-18T13:28:07;31.40;28.90
71868;DHT22;59738;48.324;14.230;2022-08-18T13:30:34;31.80;28.00
71868;DHT22;59738;48.324;14.230;2022-08-18T13:33:03;32.10;27.40
71868;DHT22;59738;48.324;14.230;2022-08-18T13:35:32;32.10;29.30
71868;DHT22;59738;48.324;14.230;2022-08-18T13:38:00;31.80;28.90
71868;DHT22;59738;48.324;14.230;2022-08-18T13:40:28;31.20;28.60
71868;DHT22;59738;48.324;14.230;2022-08-18T13:42:55;31.70;27.90
71868;DHT22;59738;48.324;14.230;2022-08-18T13:45:23;31.60;27.60
71868;DHT22;59738;48.324;14.230;2022-08-18T13:47:51;31.40;27.90
71868;DHT22;59738;48.324;14.230;2022-08-18T13:50:19;31.40;28.80
71868;DHT22;59738;48.324;14.230;2022-08-18T13:52:49;31.40;29.70
71868;DHT22;59738;48.324;14.230;2022-08-18T13:55:17;31.30;28.60
71868;DHT22;59738;48.324;14.230;2022-08-18T13:57:46;31.30;29.90
71868;DHT22;59738;48.324;14.230;2022-08-18T14:00:16;31.00;31.00
71868;DHT22;59738;48.324;14.230;2022-08-18T14:02:45;30.50;31.70
71868;DHT22;59738;48.324;14.230;2022-08-18T14:05:15;30.40;31.60
71868;DHT22;59738;48.324;14.230;2022-08-18T14:07:43;30.40;31.40
71868;DHT22;59738;48.324;14.230;2022-08-18T14:10:13;30.40;31.60
71868;DHT22;59738;48.324;14.230;2022-08-18T14:12:41;30.30;31.90
71868;DHT22;59738;48.324;14.230;2022-08-18T14:15:12;30.00;32.90
71868;DHT22;59738;48.324;14.230;2022-08-18T14:17:41;29.80;34.10
71868;DHT22;59738;48.324;14.230;2022-08-18T14:20:10;29.60;33.10
71868;DHT22;59738;48.324;14.230;2022-08-18T14:22:57;29.60;33.90
71868;DHT22;59738;48.324;14.230;2022-08-18T14:25:44;29.60;32.70
71868;DHT22;59738;48.324;14.230;2022-08-18T14:28:31;29.40;34.00
71868;DHT22;59738;48.324;14.230;2022-08-18T14:31:01;29.30;33.90
71868;DHT22;59738;48.324;14.230;2022-08-18T14:33:30;29.30;34.00
71868;DHT22;59738;48.324;14.230;2022-08-18T14:35:58;29.40;34.80
71868;DHT22;59738;48.324;14.230;2022-08-18T14:38:25;29.30;35.00
71868;DHT22;59738;48.324;14.230;2022-08-18T14:40:55;29.30;34.70
71868;DHT22;59738;48.324;14.230;2022-08-18T14:43:23;29.30;34.10
71868;DHT22;59738;48.324;14.230;2022-08-18T14:45:51;29.30;36.70
71868;DHT22;59738;48.324;14.230;2022-08-18T14:48:20;29.10;35.40
71868;DHT22;59738;48.324;14.230;2022-08-18T14:50:50;28.90;35.90
71868;DHT22;59738;48.324;14.230;2022-08-18T14:53:22;28.60;35.60
71868;DHT22;59738;48.324;14.230;2022-08-18T14:55:51;28.40;36.00
71868;DHT22;59738;48.324;14.230;2022-08-18T14:58:24;28.10;36.70
71868;DHT22;59738;48.324;14.230;2022-08-18T15:00:54;27.90;37.90
71868;DHT22;59738;48.324;14.230;2022-08-18T15:03:23;27.30;44.00
71868;DHT22;59738;48.324;14.230;2022-08-18T15:05:52;26.30;47.10
71868;DHT22;59738;48.324;14.230;2022-08-18T15:08:20;25.70;48.80
71868;DHT22;59738;48.324;14.230;2022-08-18T15:10:48;25.90;44.20
71868;DHT22;59738;48.324;14.230;2022-08-18T15:13:16;26.10;46.30
71868;DHT22;59738;48.324;14.230;2022-08-18T15:15:45;26.00;44.50
71868;DHT22;59738;48.324;14.230;2022-08-18T15:18:13;25.80;45.70
71868;DHT22;59738;48.324;14.230;2022-08-18T15:20:41;25.60;46.50
71868;DHT22;59738;48.324;14.230;2022-08-18T15:23:22;25.60;46.60
71868;DHT22;59738;48.324;14.230;2022-08-18T15:26:24;25.50;47.70
71868;DHT22;59738;48.324;14.230;2022-08-18T15:28:52;25.90;46.80
71868;DHT22;59738;48.324;14.230;2022-08-18T15:31:21;26.00;46.80
71868;DHT22;59738;48.324;14.230;2022-08-18T15:33:49;26.00;46.50
71868;DHT22;59738;48.324;14.230;2022-08-18T15:36:18;26.20;46.40
71868;DHT22;59738;48.324;14.230;2022-08-18T15:38:47;26.40;46.40
71868;DHT22;59738;48.324;14.230;2022-08-18T15:41:28;26.30;44.80
71868;DHT22;59738;48.324;14.230;2022-08-18T15:43:57;26.10;45.30
71868;DHT22;59738;48.324;14.230;2022-08-18T15:46:28;25.90;44.90
71868;DHT22;59738;48.324;14.230;2022-08-18T15:48:58;25.30;45.00
71868;DHT22;59738;48.324;14.230;2022-08-18T15:51:26;25.00;46.00
71868;DHT22;59738;48.324;14.230;2022-08-18T15:53:54;24.80;46.50
71868;DHT22;59738;48.324;14.230;2022-08-18T15:56:23;24.90;45.10
71868;DHT22;59738;48.324;14.230;2022-08-18T15:58:51;24.90;46.20
71868;DHT22;59738;48.324;14.230;2022-08-18T16:01:20;25.10;45.20
71868;DHT22;59738;48.324;14.230;2022-08-18T16:03:52;25.00;44.10
71868;DHT22;59738;48.324;14.230;2022-08-18T16:06:22;25.00;44.80
71868;DHT22;59738;48.324;14.230;2022-08-18T16:08:51;25.30;43.50
71868;DHT22;59738;48.324;14.230;2022-08-18T16:11:20;25.30;43.30